sensor_id;sensor_type;location;lat;lon;timestamp;pressure;altitude;pressure_sealevel;temperature;humidity
69187;BME280;56301;56.864;60.554;2022-10-23T00:01:47;98604.38;;;24.18;39.82
69187;BME280;56301;56.864;60.554;2022-10-23T00:04:11;98607.94;;;24.18;40.02
69187;BME280;56301;56.864;60.554;2022-10-23T00:06:34;98603.38;;;24.19;39.63
69187;BME280;56301;56.864;60.554;2022-10-23T00:08:57;98607.75;;;24.20;39.76
69187;BME280;56301;56.864;60.554;2022-10-23T00:11:20;98606.91;;;24.19;39.49
69187;BME280;56301;56.864;60.554;2022-10-23T00:13:43;98604.22;;;24.19;40.10
69187;BME280;56301;56.864;60.554;2022-10-23T00:16:06;98601.66;;;24.18;39.53
69187;BME280;56301;56.864;60.554;2022-10-23T00:18:28;98600.84;;;24.17;39.97
69187;BME280;56301;56.864;60.554;2022-10-23T00:20:51;98613.53;;;24.17;39.86
69187;BME280;56301;56.864;60.554;2022-10-23T00:23:13;98611.84;;;24.16;39.91
69187;BME280;56301;56.864;60.554;2022-10-23T00:25:37;98619.97;;;24.16;39.18
69187;BME280;56301;56.864;60.554;2022-10-23T00:27:59;98613.72;;;24.15;39.51
69187;BME280;56301;56.864;60.554;2022-10-23T00:30:22;98606.44;;;24.16;39.34
69187;BME280;56301;56.864;60.554;2022-10-23T00:32:44;98624.53;;;24.15;39.54
69187;BME280;56301;56.864;60.554;2022-10-23T00:35:07;98628.91;;;24.16;40.00
69187;BME280;56301;56.864;60.554;2022-10-23T00:37:29;98627.03;;;24.17;39.27
69187;BME280;56301;56.864;60.554;2022-10-23T00:39:52;98633.28;;;24.17;39.27
69187;BME280;56301;56.864;60.554;2022-10-23T00:42:15;98641.59;;;24.16;39.21
69187;BME280;56301;56.864;60.554;2022-10-23T00:47:01;98633.63;;;24.14;39.23
69187;BME280;56301;56.864;60.554;2022-10-23T00:49:24;98641.59;;;24.16;38.92
69187;BME280;56301;56.864;60.554;2022-10-23T00:51:49;98637.00;;;24.16;38.89
69187;BME280;56301;56.864;60.554;2022-10-23T00:54:13;98647.81;;;24.16;39.43
69187;BME280;56301;56.864;60.554;2022-10-23T00:56:37;98643.44;;;24.15;39.02
69187;BME280;56301;56.864;60.554;2022-10-23T00:59:00;98647.81;;;24.16;39.54
69187;BME280;56301;56.864;60.554;2022-10-23T01:01:23;98651.56;;;24.15;39.01
69187;BME280;56301;56.864;60.554;2022-10-23T01:03:45;98641.59;;;24.16;39.43
69187;BME280;56301;56.864;60.554;2022-10-23T01:11:34;98655.09;;;24.16;39.17
69187;BME280;56301;56.864;60.554;2022-10-23T01:14:02;98658.84;;;24.15;39.43
69187;BME280;56301;56.864;60.554;2022-10-23T01:19:06;98662.38;;;24.15;39.22
69187;BME280;56301;56.864;60.554;2022-10-23T01:21:34;98675.06;;;24.15;39.06
69187;BME280;56301;56.864;60.554;2022-10-23T01:28:48;98684.16;;;24.14;39.18
69187;BME280;56301;56.864;60.554;2022-10-23T01:31:15;98690.41;;;24.14;38.84
69187;BME280;56301;56.864;60.554;2022-10-23T01:33:40;98695.81;;;24.14;39.61
69187;BME280;56301;56.864;60.554;2022-10-23T01:36:05;98688.72;;;24.13;39.44
69187;BME280;56301;56.864;60.554;2022-10-23T01:41:12;98707.66;;;24.13;39.20
69187;BME280;56301;56.864;60.554;2022-10-23T01:43:48;98707.66;;;24.13;39.39
69187;BME280;56301;56.864;60.554;2022-10-23T01:46:14;98720.16;;;24.14;39.13
69187;BME280;56301;56.864;60.554;2022-10-23T01:48:37;98701.41;;;24.13;38.98
69187;BME280;56301;56.864;60.554;2022-10-23T01:51:00;98718.47;;;24.13;38.82
69187;BME280;56301;56.864;60.554;2022-10-23T01:53:25;98712.22;;;24.13;38.69
69187;BME280;56301;56.864;60.554;2022-10-23T01:55:48;98727.59;;;24.12;38.58
69187;BME280;56301;56.864;60.554;2022-10-23T01:58:17;98727.41;;;24.14;38.89
69187;BME280;56301;56.864;60.554;2022-10-23T02:00:40;98730.97;;;24.14;38.85
69187;BME280;56301;56.864;60.554;2022-10-23T02:03:05;98724.72;;;24.14;39.15
69187;BME280;56301;56.864;60.554;2022-10-23T02:05:30;98722.19;;;24.12;39.18
69187;BME280;56301;56.864;60.554;2022-10-23T02:07:54;98726.41;;;24.15;38.83
69187;BME280;56301;56.864;60.554;2022-10-23T02:10:17;98732.81;;;24.14;38.73
69187;BME280;56301;56.864;60.554;2022-10-23T02:15:10;98733.00;;;24.12;38.83
69187;BME280;56301;56.864;60.554;2022-10-23T02:20:19;98739.25;;;24.13;38.77
69187;BME280;56301;56.864;60.554;2022-10-23T02:22:47;98758.38;;;24.11;38.83
69187;BME280;56301;56.864;60.554;2022-10-23T02:25:15;98757.34;;;24.12;38.75
69187;BME280;56301;56.864;60.554;2022-10-23T02:27:46;98754.81;;;24.11;39.10
69187;BME280;56301;56.864;60.554;2022-10-23T02:30:11;98751.25;;;24.10;38.61
69187;BME280;56301;56.864;60.554;2022-10-23T02:32:38;98760.22;;;24.11;38.56
69187;BME280;56301;56.864;60.554;2022-10-23T02:35:02;98760.22;;;24.11;38.39
69187;BME280;56301;56.864;60.554;2022-10-23T02:37:24;98763.78;;;24.11;38.84
69187;BME280;56301;56.864;60.554;2022-10-23T02:39:47;98767.47;;;24.10;38.55
69187;BME280;56301;56.864;60.554;2022-10-23T02:42:11;98781.00;;;24.10;39.08
69187;BME280;56301;56.864;60.554;2022-10-23T02:49:38;98780.84;;;24.12;38.39
69187;BME280;56301;56.864;60.554;2022-10-23T03:00:05;98785.41;;;24.11;38.55
69187;BME280;56301;56.864;60.554;2022-10-23T03:02:30;98797.06;;;24.12;39.08
69187;BME280;56301;56.864;60.554;2022-10-23T03:04:53;98790.81;;;24.11;39.00
69187;BME280;56301;56.864;60.554;2022-10-23T03:07:17;98796.22;;;24.11;38.30
69187;BME280;56301;56.864;60.554;2022-10-23T03:09:40;98810.56;;;24.12;38.51
69187;BME280;56301;56.864;60.554;2022-10-23T03:12:02;98798.91;;;24.11;38.80
69187;BME280;56301;56.864;60.554;2022-10-23T03:14:28;98801.63;;;24.11;38.88
69187;BME280;56301;56.864;60.554;2022-10-23T03:16:50;98801.63;;;24.11;38.20
69187;BME280;56301;56.864;60.554;2022-10-23T03:19:13;98805.31;;;24.10;38.49
69187;BME280;56301;56.864;60.554;2022-10-23T03:21:36;98808.03;;;24.10;38.06
69187;BME280;56301;56.864;60.554;2022-10-23T03:24:02;98801.63;;;24.11;38.91
69187;BME280;56301;56.864;60.554;2022-10-23T03:26:32;98810.72;;;24.10;38.41
69187;BME280;56301;56.864;60.554;2022-10-23T03:28:54;98818.84;;;24.10;38.68
69187;BME280;56301;56.864;60.554;2022-10-23T03:31:19;98822.56;;;24.09;38.56
69187;BME280;56301;56.864;60.554;2022-10-23T03:33:44;98819.88;;;24.09;38.28
69187;BME280;56301;56.864;60.554;2022-10-23T03:36:08;98817.16;;;24.09;38.33
69187;BME280;56301;56.864;60.554;2022-10-23T03:38:30;98827.97;;;24.09;38.25
69187;BME280;56301;56.864;60.554;2022-10-23T03:40:53;98825.28;;;24.09;38.61
69187;BME280;56301;56.864;60.554;2022-10-23T03:43:15;98829.00;;;24.08;38.01
69187;BME280;56301;56.864;60.554;2022-10-23T03:45:38;98830.69;;;24.09;38.36
69187;BME280;56301;56.864;60.554;2022-10-23T03:48:00;98830.69;;;24.09;38.51
69187;BME280;56301;56.864;60.554;2022-10-23T03:50:24;98843.16;;;24.10;38.13
69187;BME280;56301;56.864;60.554;2022-10-23T03:52:46;98844.00;;;24.11;38.06
69187;BME280;56301;56.864;60.554;2022-10-23T03:55:09;98844.88;;;24.11;38.41
69187;BME280;56301;56.864;60.554;2022-10-23T03:57:32;98852.13;;;24.11;38.24
69187;BME280;56301;56.864;60.554;2022-10-23T03:59:55;98855.69;;;24.11;38.14
69187;BME280;56301;56.864;60.554;2022-10-23T04:02:17;98875.44;;;24.12;38.21
69187;BME280;56301;56.864;60.554;2022-10-23T04:04:40;98869.19;;;24.11;38.53
69187;BME280;56301;56.864;60.554;2022-10-23T04:07:02;98874.59;;;24.11;38.31
69187;BME280;56301;56.864;60.554;2022-10-23T04:09:24;98873.59;;;24.12;38.12
69187;BME280;56301;56.864;60.554;2022-10-23T04:11:47;98873.59;;;24.12;38.30
69187;BME280;56301;56.864;60.554;2022-10-23T04:14:10;98874.41;;;24.13;38.05
69187;BME280;56301;56.864;60.554;2022-10-23T04:16:33;98886.25;;;24.12;38.19
69187;BME280;56301;56.864;60.554;2022-10-23T04:18:56;98873.75;;;24.11;38.04
69187;BME280;56301;56.864;60.554;2022-10-23T04:21:18;98888.78;;;24.13;38.15
69187;BME280;56301;56.864;60.554;2022-10-23T04:23:41;98890.81;;;24.11;38.33
69187;BME280;56301;56.864;60.554;2022-10-23T04:26:09;98892.66;;;24.11;38.26
69187;BME280;56301;56.864;60.554;2022-10-23T04:28:32;98896.03;;;24.13;38.22
69187;BME280;56301;56.864;60.554;2022-10-23T04:30:55;98904.34;;;24.11;38.16
69187;BME280;56301;56.864;60.554;2022-10-23T04:33:17;98909.75;;;24.11;37.98
69187;BME280;56301;56.864;60.554;2022-10-23T04:35:40;98908.03;;;24.10;37.94
69187;BME280;56301;56.864;60.554;2022-10-23T04:38:02;98914.47;;;24.09;38.04
69187;BME280;56301;56.864;60.554;2022-10-23T04:40:25;98907.06;;;24.11;38.06
69187;BME280;56301;56.864;60.554;2022-10-23T04:42:49;98913.09;;;24.13;38.15
69187;BME280;56301;56.864;60.554;2022-10-23T04:45:12;98908.03;;;24.10;38.21
69187;BME280;56301;56.864;60.554;2022-10-23T04:47:36;98912.47;;;24.11;38.20
69187;BME280;56301;56.864;60.554;2022-10-23T04:49:59;98914.13;;;24.12;37.83
69187;BME280;56301;56.864;60.554;2022-10-23T04:52:41;98916.84;;;24.12;38.04
69187;BME280;56301;56.864;60.554;2022-10-23T04:55:22;98920.38;;;24.13;37.67
69187;BME280;56301;56.864;60.554;2022-10-23T04:58:03;98920.56;;;24.11;38.19
69187;BME280;56301;56.864;60.554;2022-10-23T05:00:25;98913.09;;;24.13;38.22
69187;BME280;56301;56.864;60.554;2022-10-23T05:02:51;98907.69;;;24.13;37.78
69187;BME280;56301;56.864;60.554;2022-10-23T05:05:15;98912.06;;;24.14;37.84
69187;BME280;56301;56.864;60.554;2022-10-23T05:07:50;98923.91;;;24.13;38.44
69187;BME280;56301;56.864;60.554;2022-10-23T05:10:46;98931.00;;;24.14;37.89
69187;BME280;56301;56.864;60.554;2022-10-23T05:13:10;98927.66;;;24.12;37.78
69187;BME280;56301;56.864;60.554;2022-10-23T05:15:32;98926.63;;;24.13;37.80
69187;BME280;56301;56.864;60.554;2022-10-23T05:17:56;98932.03;;;24.13;37.69
69187;BME280;56301;56.864;60.554;2022-10-23T05:20:22;98924.75;;;24.14;37.63
69187;BME280;56301;56.864;60.554;2022-10-23T05:22:46;98928.13;;;24.16;37.88
69187;BME280;56301;56.864;60.554;2022-10-23T05:25:10;98935.41;;;24.15;37.42
69187;BME280;56301;56.864;60.554;2022-10-23T05:27:34;98931.00;;;24.14;38.15
69187;BME280;56301;56.864;60.554;2022-10-23T05:29:58;98932.72;;;24.15;37.62
69187;BME280;56301;56.864;60.554;2022-10-23T05:32:23;98934.38;;;24.16;37.86
69187;BME280;56301;56.864;60.554;2022-10-23T05:34:48;98930.31;;;24.20;37.92
69187;BME280;56301;56.864;60.554;2022-10-23T05:37:11;98931.63;;;24.24;37.37
69187;BME280;56301;56.864;60.554;2022-10-23T05:39:35;98927.91;;;24.25;37.95
69187;BME280;56301;56.864;60.554;2022-10-23T05:42:01;98935.03;;;24.26;37.50
69187;BME280;56301;56.864;60.554;2022-10-23T05:44:24;98925.38;;;24.24;37.87
69187;BME280;56301;56.864;60.554;2022-10-23T05:47:07;98934.19;;;24.26;37.73
69187;BME280;56301;56.864;60.554;2022-10-23T05:49:50;98925.88;;;24.27;37.71
69187;BME280;56301;56.864;60.554;2022-10-23T05:52:33;98925.88;;;24.27;37.51
69187;BME280;56301;56.864;60.554;2022-10-23T05:55:21;98930.44;;;24.27;37.53
69187;BME280;56301;56.864;60.554;2022-10-23T05:57:52;98916.38;;;24.32;37.51
69187;BME280;56301;56.864;60.554;2022-10-23T06:00:24;98928.88;;;24.33;37.43
69187;BME280;56301;56.864;60.554;2022-10-23T06:03:04;98933.94;;;24.36;37.22
69187;BME280;56301;56.864;60.554;2022-10-23T06:05:34;98923.63;;;24.47;37.28
69187;BME280;56301;56.864;60.554;2022-10-23T06:08:15;98938.16;;;24.46;37.59
69187;BME280;56301;56.864;60.554;2022-10-23T06:10:38;98936.66;;;24.44;36.93
69187;BME280;56301;56.864;60.554;2022-10-23T06:13:03;98939.38;;;24.44;37.12
69187;BME280;56301;56.864;60.554;2022-10-23T06:15:25;98943.75;;;24.45;37.14
69187;BME280;56301;56.864;60.554;2022-10-23T06:17:53;98937.50;;;24.44;37.67
69187;BME280;56301;56.864;60.554;2022-10-23T06:20:16;98943.50;;;24.55;37.20
69187;BME280;56301;56.864;60.554;2022-10-23T06:22:40;98944.38;;;24.55;36.90
69187;BME280;56301;56.864;60.554;2022-10-23T06:25:20;98926.44;;;24.54;37.36
69187;BME280;56301;56.864;60.554;2022-10-23T06:27:45;98935.16;;;24.64;36.69
69187;BME280;56301;56.864;60.554;2022-10-23T06:30:08;98930.78;;;24.63;37.03
69187;BME280;56301;56.864;60.554;2022-10-23T06:32:30;98939.06;;;24.62;37.03
69187;BME280;56301;56.864;60.554;2022-10-23T06:35:05;98929.94;;;24.63;37.04
69187;BME280;56301;56.864;60.554;2022-10-23T06:37:28;98933.75;;;24.77;37.00
69187;BME280;56301;56.864;60.554;2022-10-23T06:40:00;98937.94;;;24.79;37.46
69187;BME280;56301;56.864;60.554;2022-10-23T06:42:42;98946.47;;;24.91;37.74
69187;BME280;56301;56.864;60.554;2022-10-23T06:45:24;98930.19;;;24.99;37.44
69187;BME280;56301;56.864;60.554;2022-10-23T06:48:09;98935.69;;;25.14;37.72
69187;BME280;56301;56.864;60.554;2022-10-23T06:50:50;98926.56;;;25.07;37.68
69187;BME280;56301;56.864;60.554;2022-10-23T06:53:18;98931.38;;;25.19;36.34
69187;BME280;56301;56.864;60.554;2022-10-23T06:55:50;98924.53;;;25.32;36.86
69187;BME280;56301;56.864;60.554;2022-10-23T06:58:12;98929.59;;;25.35;37.00
69187;BME280;56301;56.864;60.554;2022-10-23T07:00:52;98938.91;;;25.32;36.79
69187;BME280;56301;56.864;60.554;2022-10-23T07:03:15;98934.25;;;25.41;37.37
69187;BME280;56301;56.864;60.554;2022-10-23T07:05:37;98935.09;;;25.56;36.64
69187;BME280;56301;56.864;60.554;2022-10-23T07:08:00;98945.69;;;25.66;36.79
69187;BME280;56301;56.864;60.554;2022-10-23T07:10:29;98934.25;;;25.79;36.23
69187;BME280;56301;56.864;60.554;2022-10-23T07:12:56;98936.00;;;25.86;36.06
69187;BME280;56301;56.864;60.554;2022-10-23T07:15:45;98933.00;;;25.96;36.55
69187;BME280;56301;56.864;60.554;2022-10-23T07:18:12;98933.09;;;26.03;35.76
69187;BME280;56301;56.864;60.554;2022-10-23T07:20:57;98916.91;;;26.09;35.98
69187;BME280;56301;56.864;60.554;2022-10-23T07:23:19;98922.44;;;26.16;36.39
69187;BME280;56301;56.864;60.554;2022-10-23T07:25:42;98909.91;;;26.15;36.02
69187;BME280;56301;56.864;60.554;2022-10-23T07:28:04;98904.38;;;26.23;35.88
69187;BME280;56301;56.864;60.554;2022-10-23T07:30:27;98910.88;;;26.29;36.33
69187;BME280;56301;56.864;60.554;2022-10-23T07:32:51;98921.34;;;26.32;35.52
69187;BME280;56301;56.864;60.554;2022-10-23T07:35:33;98921.47;;;26.24;36.76
69187;BME280;56301;56.864;60.554;2022-10-23T07:38:01;98925.97;;;26.16;35.84
69187;BME280;56301;56.864;60.554;2022-10-23T07:40:27;98930.44;;;26.24;36.32
69187;BME280;56301;56.864;60.554;2022-10-23T07:42:52;98925.41;;;26.21;36.44
69187;BME280;56301;56.864;60.554;2022-10-23T07:45:14;98930.59;;;26.01;35.91
69187;BME280;56301;56.864;60.554;2022-10-23T07:47:39;98928.44;;;25.97;35.61
69187;BME280;56301;56.864;60.554;2022-10-23T07:50:03;98934.22;;;26.08;35.92
69187;BME280;56301;56.864;60.554;2022-10-23T07:52:26;98953.47;;;26.13;35.23
69187;BME280;56301;56.864;60.554;2022-10-23T07:55:06;98911.28;;;26.26;36.22
69187;BME280;56301;56.864;60.554;2022-10-23T07:57:31;98932.13;;;26.40;36.15
69187;BME280;56301;56.864;60.554;2022-10-23T08:00:05;98942.31;;;26.53;36.50
69187;BME280;56301;56.864;60.554;2022-10-23T08:02:35;98949.50;;;26.60;35.76
69187;BME280;56301;56.864;60.554;2022-10-23T08:04:59;98948.91;;;26.65;35.95
69187;BME280;56301;56.864;60.554;2022-10-23T08:07:33;98938.50;;;26.69;36.04
69187;BME280;56301;56.864;60.554;2022-10-23T08:09:56;98938.97;;;26.72;34.90
69187;BME280;56301;56.864;60.554;2022-10-23T08:12:18;98936.47;;;26.71;35.69
69187;BME280;56301;56.864;60.554;2022-10-23T08:14:41;98935.41;;;26.72;35.71
69187;BME280;56301;56.864;60.554;2022-10-23T08:17:03;98933.16;;;26.75;35.57
69187;BME280;56301;56.864;60.554;2022-10-23T08:19:44;98923.13;;;26.76;35.58
69187;BME280;56301;56.864;60.554;2022-10-23T08:22:07;98933.22;;;26.82;36.17
69187;BME280;56301;56.864;60.554;2022-10-23T08:24:29;98940.31;;;26.83;35.22
69187;BME280;56301;56.864;60.554;2022-10-23T08:26:52;98934.28;;;26.81;36.20
69187;BME280;56301;56.864;60.554;2022-10-23T08:29:18;98933.59;;;26.79;36.11
69187;BME280;56301;56.864;60.554;2022-10-23T08:31:41;98944.75;;;26.84;35.92
69187;BME280;56301;56.864;60.554;2022-10-23T08:34:11;98954.56;;;26.85;35.63
69187;BME280;56301;56.864;60.554;2022-10-23T08:36:34;98928.25;;;26.85;35.98
69187;BME280;56301;56.864;60.554;2022-10-23T08:38:57;98939.31;;;26.84;36.50
69187;BME280;56301;56.864;60.554;2022-10-23T08:41:24;98951.63;;;26.86;36.18
69187;BME280;56301;56.864;60.554;2022-10-23T08:43:59;98939.41;;;26.76;36.55
69187;BME280;56301;56.864;60.554;2022-10-23T08:46:30;98942.63;;;26.64;35.91
69187;BME280;56301;56.864;60.554;2022-10-23T08:51:46;98948.84;;;26.58;37.12
69187;BME280;56301;56.864;60.554;2022-10-23T08:54:11;98952.50;;;26.51;36.34
69187;BME280;56301;56.864;60.554;2022-10-23T08:56:39;98938.75;;;26.52;37.12
69187;BME280;56301;56.864;60.554;2022-10-23T08:59:10;98942.56;;;26.58;36.78
69187;BME280;56301;56.864;60.554;2022-10-23T09:03:59;98942.19;;;26.61;36.26
69187;BME280;56301;56.864;60.554;2022-10-23T09:06:30;98941.34;;;26.60;35.99
69187;BME280;56301;56.864;60.554;2022-10-23T09:19:13;98928.53;;;26.39;36.81
69187;BME280;56301;56.864;60.554;2022-10-23T09:21:35;98930.16;;;26.34;36.53
69187;BME280;56301;56.864;60.554;2022-10-23T09:23:58;98929.03;;;26.28;37.18
69187;BME280;56301;56.864;60.554;2022-10-23T09:26:20;98937.09;;;26.36;36.90
69187;BME280;56301;56.864;60.554;2022-10-23T09:28:47;98929.00;;;26.43;35.79
69187;BME280;56301;56.864;60.554;2022-10-23T09:31:10;98918.09;;;26.51;36.70
69187;BME280;56301;56.864;60.554;2022-10-23T09:33:33;98930.25;;;26.55;36.16
69187;BME280;56301;56.864;60.554;2022-10-23T09:35:57;98898.97;;;26.59;36.46
69187;BME280;56301;56.864;60.554;2022-10-23T09:38:27;98935.53;;;26.63;36.30
69187;BME280;56301;56.864;60.554;2022-10-23T09:40:49;98928.06;;;26.66;36.59
69187;BME280;56301;56.864;60.554;2022-10-23T09:43:14;98935.16;;;26.67;36.49
69187;BME280;56301;56.864;60.554;2022-10-23T09:45:37;98933.94;;;26.69;36.56
69187;BME280;56301;56.864;60.554;2022-10-23T09:48:04;98920.88;;;26.79;36.86
69187;BME280;56301;56.864;60.554;2022-10-23T09:50:27;98906.75;;;26.84;36.39
69187;BME280;56301;56.864;60.554;2022-10-23T09:52:49;98924.84;;;26.77;37.35
69187;BME280;56301;56.864;60.554;2022-10-23T09:55:17;98908.94;;;26.74;37.34
69187;BME280;56301;56.864;60.554;2022-10-23T09:57:41;98924.25;;;26.81;37.63
69187;BME280;56301;56.864;60.554;2022-10-23T10:02:34;98917.22;;;26.36;35.74
69187;BME280;56301;56.864;60.554;2022-10-23T10:05:33;98909.91;;;26.15;35.17
69187;BME280;56301;56.864;60.554;2022-10-23T10:10:38;98917.50;;;25.90;34.47
69187;BME280;56301;56.864;60.554;2022-10-23T10:13:11;98917.78;;;25.80;35.03
69187;BME280;56301;56.864;60.554;2022-10-23T10:15:46;98918.31;;;25.76;34.22
69187;BME280;56301;56.864;60.554;2022-10-23T10:18:26;98917.28;;;25.77;34.15
69187;BME280;56301;56.864;60.554;2022-10-23T10:39:00;98920.16;;;25.45;31.53
69187;BME280;56301;56.864;60.554;2022-10-23T10:44:02;98927.88;;;25.34;31.89
69187;BME280;56301;56.864;60.554;2022-10-23T10:49:34;98919.63;;;25.27;30.50
69187;BME280;56301;56.864;60.554;2022-10-23T10:55:22;98928.19;;;25.16;28.79
69187;BME280;56301;56.864;60.554;2022-10-23T10:57:49;98943.31;;;25.10;28.72
69187;BME280;56301;56.864;60.554;2022-10-23T11:00:17;98930.13;;;25.07;27.85
69187;BME280;56301;56.864;60.554;2022-10-23T11:05:23;98937.41;;;25.07;28.05
69187;BME280;56301;56.864;60.554;2022-10-23T11:07:55;98936.91;;;25.03;28.82
69187;BME280;56301;56.864;60.554;2022-10-23T11:10:20;98947.63;;;24.96;29.68
69187;BME280;56301;56.864;60.554;2022-10-23T11:12:43;98945.47;;;24.92;29.06
69187;BME280;56301;56.864;60.554;2022-10-23T11:15:13;98942.94;;;24.90;29.31
69187;BME280;56301;56.864;60.554;2022-10-23T11:17:37;98945.00;;;24.88;29.90
69187;BME280;56301;56.864;60.554;2022-10-23T11:20:02;98946.19;;;24.86;29.56
69187;BME280;56301;56.864;60.554;2022-10-23T11:22:29;98951.25;;;24.89;30.04
69187;BME280;56301;56.864;60.554;2022-10-23T11:30:12;98948.59;;;24.81;29.43
69187;BME280;56301;56.864;60.554;2022-10-23T11:37:38;98963.88;;;24.73;29.35
69187;BME280;56301;56.864;60.554;2022-10-23T11:42:31;98959.94;;;24.76;30.04
69187;BME280;56301;56.864;60.554;2022-10-23T11:44:54;98950.81;;;24.77;29.57
69187;BME280;56301;56.864;60.554;2022-10-23T11:47:33;98949.38;;;24.66;28.94
69187;BME280;56301;56.864;60.554;2022-10-23T11:52:30;98952.16;;;24.50;26.60
69187;BME280;56301;56.864;60.554;2022-10-23T11:57:24;98953.38;;;24.47;26.11
69187;BME280;56301;56.864;60.554;2022-10-23T12:02:31;98949.53;;;24.34;27.09
69187;BME280;56301;56.864;60.554;2022-10-23T12:04:51;98946.13;;;24.32;26.59
69187;BME280;56301;56.864;60.554;2022-10-23T12:12:25;98947.94;;;24.00;25.99
69187;BME280;56301;56.864;60.554;2022-10-23T12:14:49;98947.44;;;24.05;25.77
69187;BME280;56301;56.864;60.554;2022-10-23T12:19:46;98956.13;;;24.31;28.61
69187;BME280;56301;56.864;60.554;2022-10-23T12:22:09;98947.22;;;24.54;30.15
69187;BME280;56301;56.864;60.554;2022-10-23T12:27:29;98953.28;;;24.87;31.22
69187;BME280;56301;56.864;60.554;2022-10-23T12:30:03;98946.44;;;24.99;29.89
69187;BME280;56301;56.864;60.554;2022-10-23T12:37:46;98958.88;;;25.08;30.99
69187;BME280;56301;56.864;60.554;2022-10-23T12:40:12;98952.09;;;25.12;31.12
69187;BME280;56301;56.864;60.554;2022-10-23T12:42:35;98954.44;;;25.15;31.71
69187;BME280;56301;56.864;60.554;2022-10-23T12:44:59;98958.47;;;25.19;30.90
69187;BME280;56301;56.864;60.554;2022-10-23T12:47:21;98958.09;;;25.23;30.00
69187;BME280;56301;56.864;60.554;2022-10-23T12:49:48;98964.47;;;25.30;30.00
69187;BME280;56301;56.864;60.554;2022-10-23T12:52:14;98956.34;;;25.30;30.23
69187;BME280;56301;56.864;60.554;2022-10-23T12:54:38;98961.59;;;25.31;30.32
69187;BME280;56301;56.864;60.554;2022-10-23T12:57:00;98960.38;;;25.34;29.88
69187;BME280;56301;56.864;60.554;2022-10-23T12:59:26;98958.22;;;25.29;30.01
69187;BME280;56301;56.864;60.554;2022-10-23T13:01:53;98966.53;;;25.28;30.91
69187;BME280;56301;56.864;60.554;2022-10-23T13:06:47;98969.78;;;25.23;31.04
69187;BME280;56301;56.864;60.554;2022-10-23T13:09:56;98970.13;;;25.20;30.15
69187;BME280;56301;56.864;60.554;2022-10-23T13:12:06;98971.53;;;25.16;31.41
69187;BME280;56301;56.864;60.554;2022-10-23T13:14:31;98964.28;;;25.16;31.05
69187;BME280;56301;56.864;60.554;2022-10-23T13:17:00;98965.47;;;25.14;31.10
69187;BME280;56301;56.864;60.554;2022-10-23T13:19:23;98958.84;;;25.16;30.40
69187;BME280;56301;56.864;60.554;2022-10-23T13:21:46;98971.38;;;25.17;30.56
69187;BME280;56301;56.864;60.554;2022-10-23T13:24:14;98967.97;;;25.15;31.46
69187;BME280;56301;56.864;60.554;2022-10-23T13:26:40;98964.63;;;25.13;31.56
69187;BME280;56301;56.864;60.554;2022-10-23T13:29:02;98966.66;;;25.11;30.81
69187;BME280;56301;56.864;60.554;2022-10-23T13:31:37;98963.94;;;25.11;31.72
69187;BME280;56301;56.864;60.554;2022-10-23T13:36:22;98962.28;;;25.10;31.84
69187;BME280;56301;56.864;60.554;2022-10-23T13:38:46;98960.09;;;25.06;32.11
69187;BME280;56301;56.864;60.554;2022-10-23T13:41:13;98961.66;;;25.00;32.29
69187;BME280;56301;56.864;60.554;2022-10-23T13:43:36;98962.19;;;24.95;32.04
69187;BME280;56301;56.864;60.554;2022-10-23T13:45:59;98952.19;;;24.96;32.00
69187;BME280;56301;56.864;60.554;2022-10-23T13:48:23;98950.13;;;24.98;31.95
69187;BME280;56301;56.864;60.554;2022-10-23T13:50:45;98957.63;;;24.96;32.45
69187;BME280;56301;56.864;60.554;2022-10-23T13:53:11;98953.75;;;24.90;32.19
69187;BME280;56301;56.864;60.554;2022-10-23T13:55:33;98947.03;;;24.86;32.37
69187;BME280;56301;56.864;60.554;2022-10-23T13:57:56;98946.19;;;24.86;31.74
69187;BME280;56301;56.864;60.554;2022-10-23T14:00:18;98942.84;;;24.84;32.18
69187;BME280;56301;56.864;60.554;2022-10-23T14:02:41;98942.50;;;24.79;32.48
69187;BME280;56301;56.864;60.554;2022-10-23T14:05:03;98945.09;;;24.72;31.76
69187;BME280;56301;56.864;60.554;2022-10-23T14:07:25;98945.56;;;24.76;31.20
69187;BME280;56301;56.864;60.554;2022-10-23T14:09:48;98936.81;;;24.73;31.85
69187;BME280;56301;56.864;60.554;2022-10-23T14:12:10;98945.44;;;24.69;31.53
69187;BME280;56301;56.864;60.554;2022-10-23T14:14:33;98947.50;;;24.67;31.13
69187;BME280;56301;56.864;60.554;2022-10-23T14:16:55;98951.22;;;24.66;31.15
69187;BME280;56301;56.864;60.554;2022-10-23T14:19:18;98941.28;;;24.58;31.03
69187;BME280;56301;56.864;60.554;2022-10-23T14:21:40;98943.69;;;24.53;31.22
69187;BME280;56301;56.864;60.554;2022-10-23T14:24:03;98947.06;;;24.55;30.69
69187;BME280;56301;56.864;60.554;2022-10-23T14:26:26;98944.78;;;24.67;31.54
69187;BME280;56301;56.864;60.554;2022-10-23T14:28:50;98945.09;;;24.72;31.75
69187;BME280;56301;56.864;60.554;2022-10-23T14:31:14;98943.22;;;24.72;31.95
69187;BME280;56301;56.864;60.554;2022-10-23T14:33:37;98944.25;;;24.71;32.24
69187;BME280;56301;56.864;60.554;2022-10-23T14:35:59;98936.81;;;24.73;31.65
69187;BME280;56301;56.864;60.554;2022-10-23T14:38:22;98937.78;;;24.81;31.78
69187;BME280;56301;56.864;60.554;2022-10-23T14:40:44;98934.72;;;24.84;31.11
69187;BME280;56301;56.864;60.554;2022-10-23T14:43:07;98924.88;;;24.83;30.71
69187;BME280;56301;56.864;60.554;2022-10-23T14:45:29;98937.09;;;24.79;30.77
69187;BME280;56301;56.864;60.554;2022-10-23T14:47:51;98928.56;;;24.67;30.50
69187;BME280;56301;56.864;60.554;2022-10-23T14:50:14;98922.97;;;24.68;32.23
69187;BME280;56301;56.864;60.554;2022-10-23T14:52:36;98922.78;;;24.93;31.50